Time;durP1;ratioP1;P1;durP2;ratioP2;P2;SDS_P1;SDS_P2;PMS_P1;PMS_P2;Temp;Humidity;BMP_temperature;BMP_pressure;BME280_temperature;BME280_humidity;BME280_pressure;Samples;Min_cycle;Max_cycle;Signal;HPM_P1;HPM_P2
2023/04/18 00:00:42;0.00;0.00;0.62;0.00;0.00;0.62;1.40;1.00;;;24.80;22.10;;;;;;2256075;61;20929;-61
2023/04/18 00:03:28;0.00;0.00;0.62;0.00;0.00;0.62;1.67;1.10;;;24.80;22.10;;;;;;2256538;61;20365;-64
2023/04/18 00:06:13;0.00;0.00;0.62;0.00;0.00;0.62;1.60;1.00;;;24.80;22.20;;;;;;2256606;61;20408;-63
2023/04/18 00:08:57;0.00;0.00;0.62;0.00;0.00;0.62;1.70;1.00;;;24.80;22.10;;;;;;2255978;61;20409;-59
2023/04/18 00:11:44;0.00;0.00;0.62;0.00;0.00;0.62;1.80;1.33;;;24.80;22.20;;;;;;2256509;61;20365;-62
2023/04/18 00:14:29;0.00;0.00;0.62;0.00;0.00;0.62;1.70;1.10;;;24.80;22.20;;;;;;2256517;61;20381;-64
2023/04/18 00:17:14;0.00;0.00;0.62;0.00;0.00;0.62;1.90;1.07;;;24.80;22.20;;;;;;2256317;61;20412;-64
2023/04/18 00:20:03;0.00;0.00;0.62;0.00;0.00;0.62;1.50;1.10;;;24.80;22.10;;;;;;2256156;61;20538;-62
2023/04/18 00:22:48;0.00;0.00;0.62;0.00;0.00;0.62;1.63;1.20;;;24.80;22.10;;;;;;2255732;61;20362;-62
2023/04/18 00:25:32;0.00;0.00;0.62;0.00;0.00;0.62;1.60;1.10;;;24.80;22.10;;;;;;2256323;61;20429;-64
2023/04/18 00:28:19;0.00;0.00;0.62;0.00;0.00;0.62;1.60;1.10;;;24.80;22.20;;;;;;2256596;61;20830;-62
2023/04/18 00:31:03;0.00;0.00;0.62;0.00;0.00;0.62;1.87;1.20;;;24.70;22.10;;;;;;2256124;61;20390;-62
2023/04/18 00:33:50;0.00;0.00;0.62;0.00;0.00;0.62;1.73;1.23;;;24.70;22.10;;;;;;2253079;61;20388;-61
2023/04/18 00:36:34;0.00;0.00;0.62;0.00;0.00;0.62;1.40;1.00;;;24.70;22.10;;;;;;2256298;61;20361;-64
2023/04/18 00:39:19;0.00;0.00;0.62;0.00;0.00;0.62;1.87;1.33;;;24.70;22.10;;;;;;2255996;61;20389;-63
2023/04/18 00:42:04;0.00;0.00;0.62;0.00;0.00;0.62;1.30;0.80;;;24.70;22.10;;;;;;2256207;61;20406;-67
2023/04/18 00:44:50;0.00;0.00;0.62;0.00;0.00;0.62;1.60;1.00;;;24.70;22.10;;;;;;2256270;61;20358;-63
2023/04/18 00:47:35;0.00;0.00;0.62;0.00;0.00;0.62;2.23;1.57;;;24.70;22.10;;;;;;2253247;61;20427;-61
2023/04/18 00:50:20;0.00;0.00;0.62;0.00;0.00;0.62;1.80;1.20;;;24.70;22.10;;;;;;2252952;61;20428;-62
2023/04/18 00:53:05;0.00;0.00;0.62;0.00;0.00;0.62;1.93;0.90;;;24.70;22.10;;;;;;2253240;61;20374;-66
2023/04/18 00:55:50;0.00;0.00;0.62;0.00;0.00;0.62;1.50;1.10;;;24.70;22.10;;;;;;2252883;61;20426;-61
2023/04/18 00:58:35;0.00;0.00;0.62;0.00;0.00;0.62;1.77;1.07;;;24.70;22.10;;;;;;2256236;61;20800;-62
2023/04/18 01:01:20;0.00;0.00;0.62;0.00;0.00;0.62;1.50;1.10;;;24.70;22.20;;;;;;2256050;61;20401;-61
2023/04/18 01:04:05;0.00;0.00;0.62;0.00;0.00;0.62;1.60;1.07;;;24.70;22.10;;;;;;2253229;61;20886;-63
2023/04/18 01:06:51;0.00;0.00;0.62;0.00;0.00;0.62;1.50;1.00;;;24.70;22.10;;;;;;2256509;61;20365;-63
2023/04/18 01:09:36;0.00;0.00;0.62;0.00;0.00;0.62;1.40;1.00;;;24.70;22.10;;;;;;2256314;61;20394;-63
2023/04/18 01:12:21;0.00;0.00;0.62;0.00;0.00;0.62;1.60;1.10;;;24.70;22.10;;;;;;2256185;61;20886;-62
2023/04/18 01:15:07;0.00;0.00;0.62;0.00;0.00;0.62;1.60;1.10;;;24.60;22.00;;;;;;2256035;61;20382;-62
2023/04/18 01:17:55;0.00;0.00;0.62;0.00;0.00;0.62;1.60;1.10;;;24.60;22.10;;;;;;2253044;61;20386;-63
2023/04/18 01:20:44;0.00;0.00;0.62;0.00;0.00;0.62;1.57;1.10;;;24.60;22.10;;;;;;2256060;61;20432;-61
2023/04/18 01:23:30;0.00;0.00;0.62;0.00;0.00;0.62;1.70;1.20;;;24.60;22.10;;;;;;2252803;61;20390;-60
2023/04/18 01:26:16;0.00;0.00;0.62;0.00;0.00;0.62;1.40;1.10;;;24.60;22.10;;;;;;2256184;61;20973;-63
2023/04/18 01:29:00;0.00;0.00;0.62;0.00;0.00;0.62;1.60;1.20;;;24.60;22.00;;;;;;2252804;61;20436;-60
2023/04/18 01:31:45;0.00;0.00;0.62;0.00;0.00;0.62;1.50;1.10;;;24.60;22.00;;;;;;2256342;61;20440;-62
2023/04/18 01:34:33;0.00;0.00;0.62;0.00;0.00;0.62;1.80;1.30;;;24.60;22.10;;;;;;2253055;61;20811;-62
2023/04/18 01:37:17;0.00;0.00;0.62;0.00;0.00;0.62;1.40;1.00;;;24.60;22.10;;;;;;2256276;61;20408;-67
2023/04/18 01:40:02;0.00;0.00;0.62;0.00;0.00;0.62;1.43;0.93;;;24.60;22.10;;;;;;2255869;61;20409;-62
2023/04/18 01:42:48;0.00;0.00;0.62;0.00;0.00;0.62;1.67;1.17;;;24.60;22.10;;;;;;2253359;61;20470;-62
2023/04/18 01:45:33;0.00;0.00;0.62;0.00;0.00;0.62;1.50;1.00;;;24.50;22.00;;;;;;2252996;61;20366;-62
2023/04/18 01:48:19;0.00;0.00;0.62;0.00;0.00;0.62;1.67;1.17;;;24.60;22.00;;;;;;2256119;61;20440;-62
2023/04/18 01:51:05;0.00;0.00;0.62;0.00;0.00;0.62;1.60;1.00;;;24.50;22.00;;;;;;2253046;61;20362;-63
2023/04/18 01:53:50;0.00;0.00;0.62;0.00;0.00;0.62;2.00;1.20;;;24.50;22.00;;;;;;2255899;61;20432;-63
2023/04/18 01:56:34;0.00;0.00;0.62;0.00;0.00;0.62;1.40;1.00;;;24.50;22.00;;;;;;2256397;61;20409;-64
2023/04/18 01:59:21;0.00;0.00;0.62;0.00;0.00;0.62;1.73;1.20;;;24.50;22.00;;;;;;2252380;61;20794;-62
2023/04/18 02:02:06;0.00;0.00;0.62;0.00;0.00;0.62;1.30;0.90;;;24.50;22.00;;;;;;2252908;61;20370;-66
2023/04/18 02:04:51;0.00;0.00;0.62;0.00;0.00;0.62;1.87;1.40;;;24.50;22.00;;;;;;2253059;61;20421;-62
2023/04/18 02:07:36;0.00;0.00;0.62;0.00;0.00;0.62;1.57;1.20;;;24.50;22.00;;;;;;2255869;61;20406;-62
2023/04/18 02:10:21;0.00;0.00;0.62;0.00;0.00;0.62;1.50;1.13;;;24.50;22.00;;;;;;2252606;61;20384;-63
2023/04/18 02:13:05;0.00;0.00;0.62;0.00;0.00;0.62;1.50;1.00;;;24.50;22.00;;;;;;2256211;61;20362;-62
2023/04/18 02:15:51;0.00;0.00;0.62;0.00;0.00;0.62;1.80;1.37;;;24.50;22.00;;;;;;2252890;61;20404;-64
2023/04/18 02:18:38;0.00;0.00;0.62;0.00;0.00;0.62;1.80;1.30;;;24.50;22.00;;;;;;2253153;61;20934;-62
2023/04/18 02:21:24;0.00;0.00;0.62;0.00;0.00;0.62;1.60;1.20;;;24.50;22.00;;;;;;2256096;61;20366;-62
2023/04/18 02:24:09;0.00;0.00;0.62;0.00;0.00;0.62;1.50;1.00;;;24.40;22.00;;;;;;2255897;61;20781;-62
2023/04/18 02:26:54;0.00;0.00;0.62;0.00;0.00;0.62;1.53;1.10;;;24.50;22.00;;;;;;2256668;61;20381;-63
2023/04/18 02:29:38;0.00;0.00;0.62;0.00;0.00;0.62;1.90;1.30;;;24.40;22.00;;;;;;2255529;61;20382;-62
2023/04/18 02:32:25;0.00;0.00;0.62;0.00;0.00;0.62;1.60;1.20;;;24.40;22.00;;;;;;2256179;61;20377;-63
2023/04/18 02:35:11;0.00;0.00;0.62;0.00;0.00;0.62;1.80;1.40;;;24.40;22.00;;;;;;2252770;61;20413;-63
2023/04/18 02:38:00;0.00;0.00;0.62;0.00;0.00;0.62;1.83;1.10;;;24.40;22.00;;;;;;2303585;39;20386;31
2023/04/18 02:40:44;0.00;0.00;0.62;0.00;0.00;0.62;1.50;1.00;;;24.40;22.00;;;;;;2260706;61;20355;-64
2023/04/18 02:43:29;0.00;0.00;0.62;0.00;0.00;0.62;1.60;1.20;;;24.40;22.00;;;;;;2259651;61;20445;-64
2023/04/18 02:46:16;0.00;0.00;0.62;0.00;0.00;0.62;1.90;1.50;;;24.40;22.00;;;;;;2256632;61;20850;-64
2023/04/18 02:49:06;0.00;0.00;0.62;0.00;0.00;0.62;1.40;1.00;;;24.40;22.00;;;;;;2256346;61;20389;-65
2023/04/18 02:51:54;0.00;0.00;0.62;0.00;0.00;0.62;1.40;1.10;;;24.40;22.00;;;;;;2256634;61;20483;-65
2023/04/18 02:54:40;0.00;0.00;0.62;0.00;0.00;0.62;1.50;1.10;;;24.40;22.00;;;;;;2256365;61;20432;-62
2023/04/18 02:57:29;0.00;0.00;0.62;0.00;0.00;0.62;1.50;1.00;;;24.40;22.60;;;;;;2256872;61;20365;-63
2023/04/18 03:00:46;0.00;0.00;0.62;0.00;0.00;0.62;1.40;1.00;;;24.40;22.00;;;;;;2259155;61;20397;-61
2023/04/18 03:03:58;0.00;0.00;0.62;0.00;0.00;0.62;1.50;1.00;;;24.40;22.00;;;;;;2258472;61;20357;-63
2023/04/18 03:06:52;0.00;0.00;0.62;0.00;0.00;0.62;1.80;1.10;;;24.30;22.00;;;;;;2258116;61;20411;-63
2023/04/18 03:09:37;0.00;0.00;0.62;0.00;0.00;0.62;1.70;1.20;;;24.30;22.00;;;;;;2257918;61;20428;-63
2023/04/18 03:12:31;0.00;0.00;0.62;0.00;0.00;0.62;1.60;1.17;;;24.30;22.00;;;;;;2259119;61;20412;-62
2023/04/18 03:15:17;0.00;0.00;0.62;0.00;0.00;0.62;1.53;1.07;;;24.30;22.00;;;;;;2258425;61;20479;-63
2023/04/18 03:18:04;0.00;0.00;0.62;0.00;0.00;0.62;1.67;1.03;;;24.30;22.00;;;;;;2258575;61;20381;-61
2023/04/18 03:20:52;0.00;0.00;0.62;0.00;0.00;0.62;1.70;1.10;;;24.30;22.00;;;;;;2258085;61;20461;-62
2023/04/18 03:23:38;0.00;0.00;0.62;0.00;0.00;0.62;1.50;1.10;;;24.30;22.00;;;;;;2262135;61;21132;-62
2023/04/18 03:26:24;0.00;0.00;0.62;0.00;0.00;0.62;1.80;0.97;;;24.30;22.00;;;;;;2259196;61;20389;-63
2023/04/18 03:29:10;0.00;0.00;0.62;0.00;0.00;0.62;1.40;0.90;;;24.30;22.00;;;;;;2255867;61;20408;-62
2023/04/18 03:31:55;0.00;0.00;0.62;0.00;0.00;0.62;1.50;1.03;;;24.30;22.00;;;;;;2259215;61;20373;-62
2023/04/18 03:34:39;0.00;0.00;0.62;0.00;0.00;0.62;1.70;1.20;;;24.30;22.00;;;;;;2259205;61;20420;-62
2023/04/18 03:37:25;0.00;0.00;0.62;0.00;0.00;0.62;1.50;1.07;;;24.30;22.00;;;;;;2259120;61;20436;-62
2023/04/18 03:40:13;0.00;0.00;0.62;0.00;0.00;0.62;1.53;1.00;;;24.30;22.00;;;;;;2261374;61;20499;-62
2023/04/18 03:42:59;0.00;0.00;0.62;0.00;0.00;0.62;1.70;1.30;;;24.30;22.00;;;;;;2258821;61;20401;-62
2023/04/18 03:45:46;0.00;0.00;0.62;0.00;0.00;0.62;1.67;1.20;;;24.30;22.00;;;;;;2259045;61;20360;-63
2023/04/18 03:48:34;0.00;0.00;0.62;0.00;0.00;0.62;1.70;1.27;;;24.30;22.00;;;;;;2259165;61;20933;-63
2023/04/18 03:51:21;0.00;0.00;0.62;0.00;0.00;0.62;1.50;1.07;;;24.30;22.00;;;;;;2258912;61;20408;-62
2023/04/18 03:54:06;0.00;0.00;0.62;0.00;0.00;0.62;1.63;1.20;;;24.20;21.90;;;;;;2261824;61;20397;-62
2023/04/18 03:56:52;0.00;0.00;0.62;0.00;0.00;0.62;1.93;1.33;;;24.20;22.00;;;;;;2262664;61;20423;-63
2023/04/18 03:59:37;0.00;0.00;0.62;0.00;0.00;0.62;1.77;1.33;;;24.20;22.00;;;;;;2258750;61;20385;-63
2023/04/18 04:02:22;0.00;0.00;0.62;0.00;0.00;0.62;1.80;1.20;;;24.20;22.00;;;;;;2256576;61;20419;-64
2023/04/18 04:05:08;0.00;0.00;0.62;0.00;0.00;0.62;1.60;1.00;;;24.20;22.00;;;;;;2258989;61;20361;-65
2023/04/18 04:07:53;0.00;0.00;0.62;0.00;0.00;0.62;1.90;1.40;;;24.20;22.00;;;;;;2259043;61;20381;-65
2023/04/18 04:10:37;0.00;0.00;0.62;0.00;0.00;0.62;1.37;1.00;;;24.20;22.00;;;;;;2259064;61;20380;-64
2023/04/18 04:13:23;0.00;0.00;0.62;0.00;0.00;0.62;1.50;1.00;;;24.20;22.00;;;;;;2258791;61;20369;-65
2023/04/18 04:16:08;0.00;0.00;0.62;0.00;0.00;0.62;2.00;1.30;;;24.20;22.00;;;;;;2262087;61;20391;-65
2023/04/18 04:18:54;0.00;0.00;0.62;0.00;0.00;0.62;2.17;1.30;;;24.20;22.00;;;;;;2261895;61;20987;-64
2023/04/18 04:21:43;0.00;0.00;0.62;0.00;0.00;0.62;1.70;1.20;;;24.20;22.00;;;;;;2258717;61;20471;-62
2023/04/18 04:24:32;0.00;0.00;0.62;0.00;0.00;0.62;1.70;1.40;;;24.20;22.00;;;;;;2259212;61;20407;-62
2023/04/18 04:27:19;0.00;0.00;0.62;0.00;0.00;0.62;1.70;1.30;;;24.20;22.00;;;;;;2258748;61;20356;-62
2023/04/18 04:30:08;0.00;0.00;0.62;0.00;0.00;0.62;2.10;1.10;;;24.10;21.90;;;;;;2258696;61;20414;-62
2023/04/18 04:32:55;0.00;0.00;0.62;0.00;0.00;0.62;1.57;1.10;;;24.20;22.00;;;;;;2261725;61;20354;-63
2023/04/18 04:35:40;0.00;0.00;0.62;0.00;0.00;0.62;1.60;1.10;;;24.20;22.00;;;;;;2258345;61;20365;-63
2023/04/18 04:38:29;0.00;0.00;0.62;0.00;0.00;0.62;1.53;1.20;;;24.10;21.90;;;;;;2258651;61;20415;-62
2023/04/18 04:41:15;0.00;0.00;0.62;0.00;0.00;0.62;1.67;1.23;;;24.10;22.00;;;;;;2259012;61;20795;-63
2023/04/18 04:44:00;0.00;0.00;0.62;0.00;0.00;0.62;1.67;1.10;;;24.10;21.90;;;;;;2259037;61;20885;-63
2023/04/18 04:46:49;0.00;0.00;0.62;0.00;0.00;0.62;1.67;1.20;;;24.10;22.00;;;;;;2259516;61;20372;-64
2023/04/18 04:49:38;0.00;0.00;0.62;0.00;0.00;0.62;2.20;1.40;;;24.10;22.00;;;;;;2258449;61;20964;-65
2023/04/18 04:52:23;0.00;0.00;0.62;0.00;0.00;0.62;2.30;1.10;;;24.10;21.90;;;;;;2262155;61;20424;-64
2023/04/18 04:55:09;0.00;0.00;0.62;0.00;0.00;0.62;1.83;1.33;;;24.10;22.00;;;;;;2261069;61;20384;-62
2023/04/18 04:57:54;0.00;0.00;0.62;0.00;0.00;0.62;1.67;1.20;;;24.10;22.00;;;;;;2258803;61;20392;-62
2023/04/18 05:00:52;0.00;0.00;0.62;0.00;0.00;0.62;1.90;1.10;;;24.10;22.00;;;;;;2258664;61;20416;-64
2023/04/18 05:03:39;0.00;0.00;0.62;0.00;0.00;0.62;1.80;1.27;;;24.10;22.00;;;;;;2258856;61;20380;-63
2023/04/18 05:06:25;0.00;0.00;0.62;0.00;0.00;0.62;1.80;1.50;;;24.10;22.00;;;;;;2259026;61;20778;-64
2023/04/18 05:12:00;0.00;0.00;0.62;0.00;0.00;0.62;1.53;1.20;;;24.10;22.00;;;;;;2263703;61;20381;-64
2023/04/18 05:14:44;0.00;0.00;0.62;0.00;0.00;0.62;1.83;1.30;;;24.00;21.90;;;;;;2261938;61;20760;-64
2023/04/18 05:17:29;0.00;0.00;0.62;0.00;0.00;0.62;1.80;1.20;;;24.10;22.00;;;;;;2262354;61;20384;-62
2023/04/18 05:20:15;0.00;0.00;0.62;0.00;0.00;0.62;2.10;1.40;;;24.10;22.00;;;;;;2261897;61;20372;-64
2023/04/18 05:23:00;0.00;0.00;0.62;0.00;0.00;0.62;2.37;1.50;;;24.10;22.00;;;;;;2262066;61;20496;-64
2023/04/18 05:25:44;0.00;0.00;0.62;0.00;0.00;0.62;2.10;1.20;;;24.10;22.00;;;;;;2262504;61;20365;-64
2023/04/18 05:28:29;0.00;0.00;0.62;0.00;0.00;0.62;2.10;1.50;;;24.00;21.90;;;;;;2262259;61;20495;-63
2023/04/18 05:31:14;0.00;0.00;0.62;0.00;0.00;0.62;1.90;1.50;;;24.00;21.90;;;;;;2261820;61;20842;-65
2023/04/18 05:33:58;0.00;0.00;0.62;0.00;0.00;0.62;1.50;1.10;;;24.00;21.90;;;;;;2261459;61;20972;-64
2023/04/18 05:36:46;0.00;0.00;0.62;0.00;0.00;0.62;1.63;1.20;;;24.00;21.90;;;;;;2262211;61;20420;-64
2023/04/18 05:39:31;0.00;0.00;0.62;0.00;0.00;0.62;1.65;1.15;;;24.00;21.90;;;;;;2462968;40;20374;31
2023/04/18 05:42:15;0.00;0.00;0.62;0.00;0.00;0.62;1.67;1.27;;;24.00;22.00;;;;;;2267391;61;20404;-63
2023/04/18 05:45:00;0.00;0.00;0.62;0.00;0.00;0.62;1.67;1.20;;;24.00;22.00;;;;;;2265749;61;20578;-66
2023/04/18 05:47:45;0.00;0.00;0.62;0.00;0.00;0.62;1.70;1.30;;;24.00;21.90;;;;;;2266997;61;20364;-63
2023/04/18 05:50:30;0.00;0.00;0.62;0.00;0.00;0.62;1.60;1.23;;;24.00;21.90;;;;;;2270115;61;20358;-62
2023/04/18 05:53:16;0.00;0.00;0.62;0.00;0.00;0.62;1.80;1.40;;;24.00;21.90;;;;;;2270116;61;20899;-63
2023/04/18 05:56:01;0.00;0.00;0.62;0.00;0.00;0.62;1.90;1.50;;;24.00;22.00;;;;;;2270061;61;20461;-62
2023/04/18 05:58:46;0.00;0.00;0.62;0.00;0.00;0.62;1.60;1.30;;;24.00;22.00;;;;;;2270169;61;20555;-62
2023/04/18 06:01:32;0.00;0.00;0.62;0.00;0.00;0.62;1.70;1.37;;;24.00;22.00;;;;;;2270360;61;20471;-62
2023/04/18 06:04:17;0.00;0.00;0.62;0.00;0.00;0.62;2.47;1.60;;;24.00;22.00;;;;;;2266675;61;20397;-62
2023/04/18 06:07:02;0.00;0.00;0.62;0.00;0.00;0.62;1.60;1.17;;;24.00;22.00;;;;;;2269883;61;20805;-63
2023/04/18 06:09:48;0.00;0.00;0.62;0.00;0.00;0.62;2.30;1.50;;;24.00;22.00;;;;;;2266511;61;20682;-63
2023/04/18 06:12:33;0.00;0.00;0.62;0.00;0.00;0.62;1.70;1.30;;;24.00;22.00;;;;;;2269513;61;20494;-63
2023/04/18 06:15:18;0.00;0.00;0.62;0.00;0.00;0.62;2.00;1.50;;;23.90;21.90;;;;;;2269688;61;20379;-65
2023/04/18 06:21:13;0.00;0.00;0.62;0.00;0.00;0.62;1.83;1.40;;;23.90;21.90;;;;;;2278577;60;20502;-63
2023/04/18 06:24:00;0.00;0.00;0.62;0.00;0.00;0.62;1.67;1.20;;;23.90;21.90;;;;;;2278379;60;20579;-63
2023/04/18 06:26:46;0.00;0.00;0.62;0.00;0.00;0.62;2.10;1.70;;;23.90;21.90;;;;;;2274719;60;20365;-66
2023/04/18 06:29:32;0.00;0.00;0.62;0.00;0.00;0.62;2.17;1.60;;;23.90;21.90;;;;;;2299714;39;20417;-63
2023/04/18 06:32:16;0.00;0.00;0.62;0.00;0.00;0.62;2.47;1.80;;;23.90;21.90;;;;;;2274016;61;20993;-63
2023/04/18 06:35:01;0.00;0.00;0.62;0.00;0.00;0.62;2.10;1.60;;;23.90;21.90;;;;;;2274016;61;20462;-67
2023/04/18 06:37:45;0.00;0.00;0.62;0.00;0.00;0.62;2.17;1.77;;;23.90;21.90;;;;;;2273028;61;20370;-64
2023/04/18 06:40:30;0.00;0.00;0.62;0.00;0.00;0.62;2.00;1.63;;;23.90;21.90;;;;;;2271811;61;20366;-63
2023/04/18 06:43:16;0.00;0.00;0.62;0.00;0.00;0.62;2.70;2.10;;;23.90;21.90;;;;;;2272080;61;20370;-65
2023/04/18 06:46:04;0.00;0.00;0.62;0.00;0.00;0.62;2.43;1.70;;;23.90;21.90;;;;;;2272188;61;20496;-63
2023/04/18 06:48:50;0.00;0.00;0.62;0.00;0.00;0.62;2.07;1.87;;;23.90;21.90;;;;;;2271947;61;20393;-63
2023/04/18 06:51:34;0.00;0.00;0.62;0.00;0.00;0.62;2.03;1.50;;;23.90;21.90;;;;;;2272326;61;20501;-60
2023/04/18 06:54:19;0.00;0.00;0.62;0.00;0.00;0.62;1.90;1.57;;;23.90;21.90;;;;;;2271955;61;20425;-62
2023/04/18 06:57:04;0.00;0.00;0.62;0.00;0.00;0.62;2.20;1.80;;;23.90;21.90;;;;;;2269137;61;20366;-65
2023/04/18 06:59:50;0.00;0.00;0.62;0.00;0.00;0.62;2.50;1.87;;;23.90;21.90;;;;;;2271937;61;20402;-63
2023/04/18 07:02:36;0.00;0.00;0.62;0.00;0.00;0.62;2.00;1.50;;;23.90;21.90;;;;;;2272105;61;20390;-62
2023/04/18 07:05:21;0.00;0.00;0.62;0.00;0.00;0.62;1.67;1.33;;;23.90;21.90;;;;;;2268863;61;20362;-63
2023/04/18 07:08:06;0.00;0.00;0.62;0.00;0.00;0.62;2.20;1.77;;;23.90;21.90;;;;;;2272347;61;20378;-67
2023/04/18 07:10:51;0.00;0.00;0.62;0.00;0.00;0.62;1.80;1.57;;;23.90;22.00;;;;;;2271758;61;20359;-61
2023/04/18 07:13:35;0.00;0.00;0.62;0.00;0.00;0.62;2.17;1.60;;;23.90;21.90;;;;;;2272095;61;20832;-63
2023/04/18 07:16:22;0.00;0.00;0.62;0.00;0.00;0.62;2.17;1.70;;;23.90;21.90;;;;;;2268887;61;20399;-62
2023/04/18 07:19:07;0.00;0.00;0.62;0.00;0.00;0.62;2.30;1.80;;;23.90;22.00;;;;;;2271767;61;20418;-62
2023/04/18 07:21:54;0.00;0.00;0.62;0.00;0.00;0.62;1.87;1.60;;;23.90;22.00;;;;;;2271927;61;20491;-62
2023/04/18 07:24:39;0.00;0.00;0.62;0.00;0.00;0.62;1.97;1.57;;;23.90;21.90;;;;;;2272200;61;20361;-61
2023/04/18 07:27:24;0.00;0.00;0.62;0.00;0.00;0.62;2.10;1.60;;;23.90;21.90;;;;;;2272015;61;20381;-62
2023/04/18 07:30:10;0.00;0.00;0.62;0.00;0.00;0.62;1.87;1.60;;;23.90;21.90;;;;;;2272017;61;20365;-66
2023/04/18 07:32:57;0.00;0.00;0.62;0.00;0.00;0.62;2.00;1.77;;;23.90;22.00;;;;;;2271879;61;20781;-62
2023/04/18 07:35:44;0.00;0.00;0.62;0.00;0.00;0.62;2.23;1.50;;;23.80;21.90;;;;;;2271811;61;20394;-64
2023/04/18 07:38:29;0.00;0.00;0.62;0.00;0.00;0.62;2.50;1.83;;;23.90;22.00;;;;;;2272352;61;20378;-62
2023/04/18 07:41:14;0.00;0.00;0.62;0.00;0.00;0.62;1.80;1.60;;;23.80;21.90;;;;;;2271699;61;20370;-62
2023/04/18 07:43:59;0.00;0.00;0.62;0.00;0.00;0.62;3.00;2.10;;;23.90;21.90;;;;;;2271880;61;20362;-63
2023/04/18 07:46:45;0.00;0.00;0.62;0.00;0.00;0.62;2.43;2.00;;;23.80;21.90;;;;;;2268747;61;20440;-63
2023/04/18 07:49:31;0.00;0.00;0.62;0.00;0.00;0.62;1.90;1.50;;;23.80;21.90;;;;;;2271589;61;20400;-64
2023/04/18 07:52:15;0.00;0.00;0.62;0.00;0.00;0.62;2.37;1.83;;;23.80;21.90;;;;;;2272363;61;20366;-67
2023/04/18 07:55:00;0.00;0.00;0.62;0.00;0.00;0.62;2.00;1.53;;;23.80;21.90;;;;;;2271814;61;20426;-64
2023/04/18 07:57:49;0.00;0.00;0.62;0.00;0.00;0.62;2.23;1.57;;;23.80;21.90;;;;;;2272003;61;20366;-64
2023/04/18 08:00:35;0.00;0.00;0.62;0.00;0.00;0.62;2.60;1.73;;;23.80;21.90;;;;;;2271847;61;20389;-62
2023/04/18 08:03:20;0.00;0.00;0.62;0.00;0.00;0.62;1.80;1.50;;;23.80;21.90;;;;;;2271807;61;20917;-62
2023/04/18 08:06:07;0.00;0.00;0.62;0.00;0.00;0.62;1.70;1.40;;;23.80;21.90;;;;;;2272001;61;20407;-64
2023/04/18 08:08:51;0.00;0.00;0.62;0.00;0.00;0.62;2.20;1.67;;;23.80;21.90;;;;;;2272280;61;20389;-62
2023/04/18 08:11:37;0.00;0.00;0.62;0.00;0.00;0.62;2.27;1.67;;;23.80;21.90;;;;;;2272702;61;20354;-63
2023/04/18 08:14:22;0.00;0.00;0.62;0.00;0.00;0.62;1.80;1.33;;;23.80;21.90;;;;;;2269545;61;20793;-66
2023/04/18 08:17:07;0.00;0.00;0.62;0.00;0.00;0.62;3.27;1.70;;;23.80;21.90;;;;;;2272576;61;20362;-63
2023/04/18 08:19:51;0.00;0.00;0.62;0.00;0.00;0.62;1.90;1.37;;;23.80;21.90;;;;;;2272335;61;20827;-62
2023/04/18 08:22:37;0.00;0.00;0.62;0.00;0.00;0.62;2.13;1.60;;;23.80;21.90;;;;;;2273009;61;20382;-67
2023/04/18 08:25:24;0.00;0.00;0.62;0.00;0.00;0.62;1.73;1.43;;;23.80;22.00;;;;;;2272785;61;20914;-61
2023/04/18 08:28:09;0.00;0.00;0.62;0.00;0.00;0.62;2.00;1.80;;;23.80;21.90;;;;;;2272637;61;20424;-63
2023/04/18 08:30:55;0.00;0.00;0.62;0.00;0.00;0.62;1.60;1.23;;;23.80;21.90;;;;;;2272286;61;20769;-63
2023/04/18 08:33:40;0.00;0.00;0.62;0.00;0.00;0.62;2.13;1.67;;;23.80;22.00;;;;;;2272759;61;20933;-62
2023/04/18 08:36:25;0.00;0.00;0.62;0.00;0.00;0.62;2.70;1.63;;;23.80;22.00;;;;;;2272827;61;20362;-62
2023/04/18 08:39:12;0.00;0.00;0.62;0.00;0.00;0.62;1.83;1.47;;;23.80;22.00;;;;;;2272131;61;20449;-62
2023/04/18 08:41:58;0.00;0.00;0.62;0.00;0.00;0.62;1.90;1.70;;;23.80;22.00;;;;;;2269600;61;20454;-64
2023/04/18 08:44:44;0.00;0.00;0.62;0.00;0.00;0.62;3.10;2.03;;;23.80;22.00;;;;;;2272900;61;20358;-65
2023/04/18 08:47:28;0.00;0.00;0.62;0.00;0.00;0.62;1.70;1.40;;;23.80;22.00;;;;;;2272428;61;20377;-62
2023/04/18 08:50:13;0.00;0.00;0.62;0.00;0.00;0.62;2.17;1.50;;;23.80;22.00;;;;;;2272138;61;20848;-63
2023/04/18 08:52:59;0.00;0.00;0.62;0.00;0.00;0.62;1.90;1.60;;;23.80;22.00;;;;;;2272841;61;20363;-62
2023/04/18 08:55:49;0.00;0.00;0.62;0.00;0.00;0.62;2.20;1.97;;;23.80;22.00;;;;;;2272622;61;20897;-64
2023/04/18 08:58:34;0.00;0.00;0.62;0.00;0.00;0.62;2.03;1.73;;;23.80;22.00;;;;;;2272826;61;20457;-61
2023/04/18 09:01:18;0.00;0.00;0.62;0.00;0.00;0.62;1.70;1.47;;;23.80;22.00;;;;;;2272313;61;20408;-62
2023/04/18 09:04:04;0.00;0.00;0.62;0.00;0.00;0.62;2.40;2.00;;;23.80;22.00;;;;;;2272291;61;20481;-64
2023/04/18 09:06:52;0.00;0.00;0.62;0.00;0.00;0.62;2.00;1.70;;;23.80;22.00;;;;;;2272515;61;20397;-63
2023/04/18 09:09:42;0.00;0.00;0.62;0.00;0.00;0.62;2.03;1.63;;;23.80;22.00;;;;;;2268991;61;20405;-63
2023/04/18 09:12:28;0.00;0.00;0.62;0.00;0.00;0.62;2.50;2.00;;;23.80;22.00;;;;;;2272171;61;20358;-62
2023/04/18 09:15:15;0.00;0.00;0.62;0.00;0.00;0.62;2.23;1.83;;;23.80;22.00;;;;;;2272433;61;20478;-62
2023/04/18 09:18:01;0.00;0.00;0.62;0.00;0.00;0.62;2.50;1.80;;;23.80;22.00;;;;;;2272507;60;20466;-64
2023/04/18 09:20:48;0.00;0.00;0.62;0.00;0.00;0.62;1.87;1.53;;;23.80;22.00;;;;;;2272254;61;20441;-62
2023/04/18 09:23:33;0.00;0.00;0.62;0.00;0.00;0.62;2.40;2.03;;;23.80;22.00;;;;;;2272451;61;20370;-64
2023/04/18 09:26:32;0.00;0.00;0.62;0.00;0.00;0.62;2.30;1.87;;;23.80;22.00;;;;;;2272487;61;20982;-63
2023/04/18 09:29:23;0.00;0.00;0.62;0.00;0.00;0.62;2.27;1.97;;;23.80;22.00;;;;;;2272239;61;20378;-63
2023/04/18 09:32:08;0.00;0.00;0.62;0.00;0.00;0.62;3.00;2.37;;;23.80;22.10;;;;;;2272443;61;20773;-63
2023/04/18 09:34:56;0.00;0.00;0.62;0.00;0.00;0.62;2.40;2.13;;;23.80;22.10;;;;;;2272117;61;20393;-62
2023/04/18 09:37:50;0.00;0.00;0.62;0.00;0.00;0.62;2.93;1.70;;;23.80;22.10;;;;;;2272469;61;20823;-65
2023/04/18 09:40:35;0.00;0.00;0.62;0.00;0.00;0.62;2.10;1.60;;;23.80;22.10;;;;;;2271924;61;20392;-61
2023/04/18 09:43:20;0.00;0.00;0.62;0.00;0.00;0.62;2.10;1.80;;;23.80;22.10;;;;;;2269393;61;20363;-63
2023/04/18 09:46:07;0.00;0.00;0.62;0.00;0.00;0.62;1.90;1.70;;;23.80;22.10;;;;;;2272381;61;20468;-62
2023/04/18 09:48:52;0.00;0.00;0.62;0.00;0.00;0.62;1.90;1.67;;;23.80;22.60;;;;;;2271994;61;20910;-61
2023/04/18 09:51:38;0.00;0.00;0.62;0.00;0.00;0.62;2.07;1.43;;;23.80;22.10;;;;;;2272482;61;20394;-63
2023/04/18 09:54:24;0.00;0.00;0.62;0.00;0.00;0.62;2.17;1.57;;;23.80;22.10;;;;;;2272309;61;20419;-62
2023/04/18 09:57:12;0.00;0.00;0.62;0.00;0.00;0.62;2.00;1.60;;;23.80;22.10;;;;;;2272368;61;20845;-61
2023/04/18 10:00:20;0.00;0.00;0.62;0.00;0.00;0.62;1.87;1.30;;;23.80;22.10;;;;;;2271948;61;20484;-63
2023/04/18 10:03:08;0.00;0.00;0.62;0.00;0.00;0.62;2.23;2.03;;;23.80;22.10;;;;;;2272439;61;20365;-62
2023/04/18 10:05:54;0.00;0.00;0.62;0.00;0.00;0.62;2.13;1.70;;;23.90;22.20;;;;;;2272580;61;20412;-62
2023/04/18 10:08:39;0.00;0.00;0.62;0.00;0.00;0.62;1.87;1.33;;;23.90;22.20;;;;;;2272193;61;20386;-63
2023/04/18 10:11:24;0.00;0.00;0.62;0.00;0.00;0.62;2.30;1.60;;;23.80;22.10;;;;;;2271740;61;20366;-62
2023/04/18 10:14:12;0.00;0.00;0.62;0.00;0.00;0.62;2.20;1.50;;;23.90;22.20;;;;;;2272461;61;20458;-64
2023/04/18 10:16:58;0.00;0.00;0.62;0.00;0.00;0.62;2.70;2.30;;;23.90;22.20;;;;;;2272634;61;20621;-62
2023/04/18 10:19:46;0.00;0.00;0.62;0.00;0.00;0.62;4.67;3.97;;;23.90;22.20;;;;;;2272178;61;20918;-62
2023/04/18 10:22:34;0.00;0.00;0.62;0.00;0.00;0.62;4.47;3.87;;;23.90;22.20;;;;;;2272364;61;20366;-62
2023/04/18 10:25:48;0.00;0.00;0.62;0.00;0.00;0.62;5.27;4.67;;;23.90;22.20;;;;;;2271920;61;20446;-63
2023/04/18 10:28:51;0.00;0.00;0.62;0.00;0.00;0.62;4.50;3.90;;;23.90;22.20;;;;;;2272582;61;20439;-62
2023/04/18 10:31:40;0.00;0.00;0.62;0.00;0.00;0.62;4.20;3.80;;;23.90;22.20;;;;;;2272071;61;20767;-62
2023/04/18 10:34:25;0.00;0.00;0.62;0.00;0.00;0.62;4.33;3.73;;;23.90;22.20;;;;;;2272069;61;20386;-63
2023/04/18 10:37:11;0.00;0.00;0.62;0.00;0.00;0.62;4.43;3.57;;;23.90;22.20;;;;;;2272269;61;20366;-63
2023/04/18 10:39:59;0.00;0.00;0.62;0.00;0.00;0.62;3.53;3.17;;;23.90;22.20;;;;;;2271638;61;20788;-62
2023/04/18 10:42:58;0.00;0.00;0.62;0.00;0.00;0.62;4.10;3.70;;;23.90;22.20;;;;;;2272345;61;20378;-62
2023/04/18 10:45:42;0.00;0.00;0.62;0.00;0.00;0.62;3.80;3.20;;;23.90;22.20;;;;;;2268678;61;20358;-63
2023/04/18 10:48:31;0.00;0.00;0.62;0.00;0.00;0.62;3.40;3.00;;;23.90;22.20;;;;;;2272078;61;20934;-62
2023/04/18 10:51:19;0.00;0.00;0.62;0.00;0.00;0.62;2.60;2.40;;;23.90;22.20;;;;;;2272370;61;20898;-63
2023/04/18 10:54:10;0.00;0.00;0.62;0.00;0.00;0.62;2.87;2.57;;;23.90;22.20;;;;;;2272228;61;20362;-62
2023/04/18 10:56:57;0.00;0.00;0.62;0.00;0.00;0.62;3.17;2.63;;;23.90;22.20;;;;;;2269184;61;20367;-62
2023/04/18 10:59:47;0.00;0.00;0.62;0.00;0.00;0.62;3.20;2.90;;;23.90;22.20;;;;;;2268381;61;20925;-61
2023/04/18 11:02:32;0.00;0.00;0.62;0.00;0.00;0.62;4.40;4.00;;;23.90;22.20;;;;;;2272133;61;20404;-63